sensor_id;sensor_type;location;lat;lon;timestamp;temperature;humidity
38209;DHT22;24016;52.102;11.584;2022-11-15T00:02:10;4.90;99.90
38209;DHT22;24016;52.102;11.584;2022-11-15T00:04:35;4.90;99.90
38209;DHT22;24016;52.102;11.584;2022-11-15T00:07:01;4.90;99.90
38209;DHT22;24016;52.102;11.584;2022-11-15T00:09:27;4.90;99.90
38209;DHT22;24016;52.102;11.584;2022-11-15T00:11:52;4.90;99.90
38209;DHT22;24016;52.102;11.584;2022-11-15T00:14:20;4.80;99.90
38209;DHT22;24016;52.102;11.584;2022-11-15T00:16:46;4.80;99.90
38209;DHT22;24016;52.102;11.584;2022-11-15T00:19:12;4.70;99.90
38209;DHT22;24016;52.102;11.584;2022-11-15T00:21:37;4.70;99.90
38209;DHT22;24016;52.102;11.584;2022-11-15T00:24:03;4.70;99.90
38209;DHT22;24016;52.102;11.584;2022-11-15T00:26:29;4.70;99.90
38209;DHT22;24016;52.102;11.584;2022-11-15T00:28:54;4.70;99.90
38209;DHT22;24016;52.102;11.584;2022-11-15T00:31:20;4.60;99.90
38209;DHT22;24016;52.102;11.584;2022-11-15T00:33:45;4.50;99.90
38209;DHT22;24016;52.102;11.584;2022-11-15T00:36:11;4.60;99.90
38209;DHT22;24016;52.102;11.584;2022-11-15T00:38:39;4.60;99.90
38209;DHT22;24016;52.102;11.584;2022-11-15T00:41:06;4.60;99.90
38209;DHT22;24016;52.102;11.584;2022-11-15T00:43:32;4.60;99.90
38209;DHT22;24016;52.102;11.584;2022-11-15T00:45:58;4.50;99.90
38209;DHT22;24016;52.102;11.584;2022-11-15T00:48:24;4.50;99.90
38209;DHT22;24016;52.102;11.584;2022-11-15T00:50:50;4.50;99.90
38209;DHT22;24016;52.102;11.584;2022-11-15T00:53:16;4.50;99.90
38209;DHT22;24016;52.102;11.584;2022-11-15T00:55:42;4.50;99.90
38209;DHT22;24016;52.102;11.584;2022-11-15T00:58:08;4.50;99.90
38209;DHT22;24016;52.102;11.584;2022-11-15T01:00:34;4.50;99.90
38209;DHT22;24016;52.102;11.584;2022-11-15T01:03:02;4.50;99.90
38209;DHT22;24016;52.102;11.584;2022-11-15T01:05:28;4.50;99.90
38209;DHT22;24016;52.102;11.584;2022-11-15T01:07:55;4.50;99.90
38209;DHT22;24016;52.102;11.584;2022-11-15T01:10:22;4.50;99.90
38209;DHT22;24016;52.102;11.584;2022-11-15T01:12:48;4.50;99.90
38209;DHT22;24016;52.102;11.584;2022-11-15T01:15:14;4.50;99.90
38209;DHT22;24016;52.102;11.584;2022-11-15T01:17:40;4.50;99.90
38209;DHT22;24016;52.102;11.584;2022-11-15T01:20:06;4.50;99.90
38209;DHT22;24016;52.102;11.584;2022-11-15T01:22:31;4.50;99.90
38209;DHT22;24016;52.102;11.584;2022-11-15T01:24:57;4.50;99.90
38209;DHT22;24016;52.102;11.584;2022-11-15T01:27:23;4.60;99.90
38209;DHT22;24016;52.102;11.584;2022-11-15T01:29:48;4.50;99.90
38209;DHT22;24016;52.102;11.584;2022-11-15T01:32:14;4.50;99.90
38209;DHT22;24016;52.102;11.584;2022-11-15T01:34:40;4.40;99.90
38209;DHT22;24016;52.102;11.584;2022-11-15T01:37:05;4.40;99.90
38209;DHT22;24016;52.102;11.584;2022-11-15T01:39:31;4.40;99.90
38209;DHT22;24016;52.102;11.584;2022-11-15T01:41:56;4.40;99.90
38209;DHT22;24016;52.102;11.584;2022-11-15T01:47:24;4.50;99.90
38209;DHT22;24016;52.102;11.584;2022-11-15T01:50:06;4.50;99.90
38209;DHT22;24016;52.102;11.584;2022-11-15T01:52:34;4.50;99.90
38209;DHT22;24016;52.102;11.584;2022-11-15T01:57:33;4.50;99.90
38209;DHT22;24016;52.102;11.584;2022-11-15T02:00:01;4.50;99.90
38209;DHT22;24016;52.102;11.584;2022-11-15T02:02:27;4.50;99.90
38209;DHT22;24016;52.102;11.584;2022-11-15T02:04:52;4.50;99.90
38209;DHT22;24016;52.102;11.584;2022-11-15T02:07:20;4.50;99.90
38209;DHT22;24016;52.102;11.584;2022-11-15T02:09:46;4.50;99.90
38209;DHT22;24016;52.102;11.584;2022-11-15T02:12:16;4.40;99.90
38209;DHT22;24016;52.102;11.584;2022-11-15T02:14:46;4.40;99.90
38209;DHT22;24016;52.102;11.584;2022-11-15T02:17:29;4.30;99.90
38209;DHT22;24016;52.102;11.584;2022-11-15T02:33:23;4.20;99.90
38209;DHT22;24016;52.102;11.584;2022-11-15T02:36:17;4.20;99.90
38209;DHT22;24016;52.102;11.584;2022-11-15T02:38:47;4.20;99.90
38209;DHT22;24016;52.102;11.584;2022-11-15T02:41:25;4.20;99.90
38209;DHT22;24016;52.102;11.584;2022-11-15T02:44:12;4.20;99.90
38209;DHT22;24016;52.102;11.584;2022-11-15T02:46:58;4.30;99.90
38209;DHT22;24016;52.102;11.584;2022-11-15T02:52:17;4.30;99.90
38209;DHT22;24016;52.102;11.584;2022-11-15T02:54:52;4.30;99.90
38209;DHT22;24016;52.102;11.584;2022-11-15T02:57:20;4.30;99.90
38209;DHT22;24016;52.102;11.584;2022-11-15T02:59:59;4.30;99.90
38209;DHT22;24016;52.102;11.584;2022-11-15T03:02:52;4.20;99.90
38209;DHT22;24016;52.102;11.584;2022-11-15T03:05:29;4.20;99.90
38209;DHT22;24016;52.102;11.584;2022-11-15T03:08:06;4.20;99.90
38209;DHT22;24016;52.102;11.584;2022-11-15T03:10:43;4.20;99.90
38209;DHT22;24016;52.102;11.584;2022-11-15T03:13:26;4.20;99.90
38209;DHT22;24016;52.102;11.584;2022-11-15T03:15:59;4.30;99.90
38209;DHT22;24016;52.102;11.584;2022-11-15T03:18:43;4.20;99.90
38209;DHT22;24016;52.102;11.584;2022-11-15T03:21:10;4.30;99.90
38209;DHT22;24016;52.102;11.584;2022-11-15T03:23:38;4.20;99.90
38209;DHT22;24016;52.102;11.584;2022-11-15T03:26:08;4.20;99.90
38209;DHT22;24016;52.102;11.584;2022-11-15T03:28:54;4.20;99.90
38209;DHT22;24016;52.102;11.584;2022-11-15T03:31:23;4.20;99.90
38209;DHT22;24016;52.102;11.584;2022-11-15T03:34:19;4.30;99.90
38209;DHT22;24016;52.102;11.584;2022-11-15T03:36:47;4.30;99.90
38209;DHT22;24016;52.102;11.584;2022-11-15T03:39:13;4.30;99.90
38209;DHT22;24016;52.102;11.584;2022-11-15T03:44:23;4.40;99.90
38209;DHT22;24016;52.102;11.584;2022-11-15T03:47:08;4.40;99.90
38209;DHT22;24016;52.102;11.584;2022-11-15T03:49:37;4.40;99.90
38209;DHT22;24016;52.102;11.584;2022-11-15T03:52:04;4.30;99.90
38209;DHT22;24016;52.102;11.584;2022-11-15T03:54:30;4.30;99.90
38209;DHT22;24016;52.102;11.584;2022-11-15T03:56:56;4.30;99.90
38209;DHT22;24016;52.102;11.584;2022-11-15T03:59:22;4.30;99.90
38209;DHT22;24016;52.102;11.584;2022-11-15T04:01:48;4.30;99.90
38209;DHT22;24016;52.102;11.584;2022-11-15T04:04:13;4.20;99.90
38209;DHT22;24016;52.102;11.584;2022-11-15T04:06:39;4.20;99.90
38209;DHT22;24016;52.102;11.584;2022-11-15T04:09:05;4.20;99.90
38209;DHT22;24016;52.102;11.584;2022-11-15T04:11:30;4.20;99.90
38209;DHT22;24016;52.102;11.584;2022-11-15T04:13:56;4.20;99.90
38209;DHT22;24016;52.102;11.584;2022-11-15T04:16:21;4.20;99.90
38209;DHT22;24016;52.102;11.584;2022-11-15T04:18:47;4.30;99.90
38209;DHT22;24016;52.102;11.584;2022-11-15T04:21:33;4.30;99.90
38209;DHT22;24016;52.102;11.584;2022-11-15T04:24:17;4.30;99.90
38209;DHT22;24016;52.102;11.584;2022-11-15T04:26:42;4.30;99.90
38209;DHT22;24016;52.102;11.584;2022-11-15T04:29:08;4.30;99.90
38209;DHT22;24016;52.102;11.584;2022-11-15T04:31:52;4.40;99.90
38209;DHT22;24016;52.102;11.584;2022-11-15T04:34:18;4.30;99.90
38209;DHT22;24016;52.102;11.584;2022-11-15T04:36:43;4.30;99.90
38209;DHT22;24016;52.102;11.584;2022-11-15T04:39:27;4.30;99.90
38209;DHT22;24016;52.102;11.584;2022-11-15T04:41:53;4.40;99.90
38209;DHT22;24016;52.102;11.584;2022-11-15T04:44:18;4.40;99.90
38209;DHT22;24016;52.102;11.584;2022-11-15T04:46:44;4.40;99.90
38209;DHT22;24016;52.102;11.584;2022-11-15T04:49:09;4.40;99.90
38209;DHT22;24016;52.102;11.584;2022-11-15T04:51:35;4.40;99.90
38209;DHT22;24016;52.102;11.584;2022-11-15T04:54:01;4.40;99.90
38209;DHT22;24016;52.102;11.584;2022-11-15T04:56:26;4.30;99.90
38209;DHT22;24016;52.102;11.584;2022-11-15T04:58:52;4.30;99.90
38209;DHT22;24016;52.102;11.584;2022-11-15T05:01:18;4.20;99.90
38209;DHT22;24016;52.102;11.584;2022-11-15T05:03:44;4.20;99.90
38209;DHT22;24016;52.102;11.584;2022-11-15T05:06:29;4.20;99.90
38209;DHT22;24016;52.102;11.584;2022-11-15T05:08:55;4.10;99.90
38209;DHT22;24016;52.102;11.584;2022-11-15T05:11:21;4.10;99.90
38209;DHT22;24016;52.102;11.584;2022-11-15T05:13:46;4.10;99.90
38209;DHT22;24016;52.102;11.584;2022-11-15T05:16:12;4.00;99.90
38209;DHT22;24016;52.102;11.584;2022-11-15T05:18:38;4.00;99.90
38209;DHT22;24016;52.102;11.584;2022-11-15T05:21:10;4.00;99.90
38209;DHT22;24016;52.102;11.584;2022-11-15T05:23:36;4.00;99.90
38209;DHT22;24016;52.102;11.584;2022-11-15T05:26:03;4.00;99.90
38209;DHT22;24016;52.102;11.584;2022-11-15T05:28:30;4.10;99.90
38209;DHT22;24016;52.102;11.584;2022-11-15T05:31:28;4.10;99.90
38209;DHT22;24016;52.102;11.584;2022-11-15T05:33:55;4.10;99.90
38209;DHT22;24016;52.102;11.584;2022-11-15T05:36:35;4.10;99.90
38209;DHT22;24016;52.102;11.584;2022-11-15T05:39:03;4.10;99.90
38209;DHT22;24016;52.102;11.584;2022-11-15T05:41:47;4.10;99.90
38209;DHT22;24016;52.102;11.584;2022-11-15T05:44:17;4.10;99.90
38209;DHT22;24016;52.102;11.584;2022-11-15T05:46:43;4.10;99.90
38209;DHT22;24016;52.102;11.584;2022-11-15T05:49:12;4.10;99.90
38209;DHT22;24016;52.102;11.584;2022-11-15T05:51:40;4.10;99.90
38209;DHT22;24016;52.102;11.584;2022-11-15T05:54:06;4.10;99.90
38209;DHT22;24016;52.102;11.584;2022-11-15T05:56:32;4.10;99.90
38209;DHT22;24016;52.102;11.584;2022-11-15T05:58:58;4.10;99.90
38209;DHT22;24016;52.102;11.584;2022-11-15T06:01:25;4.10;99.90
38209;DHT22;24016;52.102;11.584;2022-11-15T06:03:51;4.20;99.90
38209;DHT22;24016;52.102;11.584;2022-11-15T06:06:17;4.20;99.90
38209;DHT22;24016;52.102;11.584;2022-11-15T06:08:43;4.20;99.90
38209;DHT22;24016;52.102;11.584;2022-11-15T06:11:08;4.10;99.90
38209;DHT22;24016;52.102;11.584;2022-11-15T06:13:34;4.20;99.90
38209;DHT22;24016;52.102;11.584;2022-11-15T06:16:00;4.20;99.90
38209;DHT22;24016;52.102;11.584;2022-11-15T06:18:26;4.20;99.90
38209;DHT22;24016;52.102;11.584;2022-11-15T06:20:51;4.20;99.90
38209;DHT22;24016;52.102;11.584;2022-11-15T06:23:17;4.20;99.90
38209;DHT22;24016;52.102;11.584;2022-11-15T06:25:43;4.20;99.90
38209;DHT22;24016;52.102;11.584;2022-11-15T06:28:08;4.20;99.90
38209;DHT22;24016;52.102;11.584;2022-11-15T06:30:34;4.20;99.90
38209;DHT22;24016;52.102;11.584;2022-11-15T06:33:04;4.20;99.90
38209;DHT22;24016;52.102;11.584;2022-11-15T06:35:32;4.20;99.90
38209;DHT22;24016;52.102;11.584;2022-11-15T06:38:06;4.20;99.90
38209;DHT22;24016;52.102;11.584;2022-11-15T06:40:36;4.30;99.90
38209;DHT22;24016;52.102;11.584;2022-11-15T06:43:03;4.40;99.90
38209;DHT22;24016;52.102;11.584;2022-11-15T06:45:29;4.50;99.90
38209;DHT22;24016;52.102;11.584;2022-11-15T06:47:54;4.50;99.90
38209;DHT22;24016;52.102;11.584;2022-11-15T06:50:20;4.50;99.90
38209;DHT22;24016;52.102;11.584;2022-11-15T06:52:46;4.50;99.90
38209;DHT22;24016;52.102;11.584;2022-11-15T06:55:11;4.50;99.90
38209;DHT22;24016;52.102;11.584;2022-11-15T06:57:43;4.50;99.90
38209;DHT22;24016;52.102;11.584;2022-11-15T07:00:11;4.50;99.90
38209;DHT22;24016;52.102;11.584;2022-11-15T07:02:37;4.50;99.90
38209;DHT22;24016;52.102;11.584;2022-11-15T07:05:02;4.50;99.90
38209;DHT22;24016;52.102;11.584;2022-11-15T07:07:28;4.40;99.90
38209;DHT22;24016;52.102;11.584;2022-11-15T07:09:54;4.40;99.90
38209;DHT22;24016;52.102;11.584;2022-11-15T07:12:19;4.40;99.90
38209;DHT22;24016;52.102;11.584;2022-11-15T07:14:45;4.50;99.90
38209;DHT22;24016;52.102;11.584;2022-11-15T07:17:10;4.50;99.90
38209;DHT22;24016;52.102;11.584;2022-11-15T07:19:36;4.60;99.90
38209;DHT22;24016;52.102;11.584;2022-11-15T07:22:01;4.60;99.90
38209;DHT22;24016;52.102;11.584;2022-11-15T07:24:27;4.70;99.90
38209;DHT22;24016;52.102;11.584;2022-11-15T07:26:52;4.80;99.90
38209;DHT22;24016;52.102;11.584;2022-11-15T07:29:18;4.80;99.90
38209;DHT22;24016;52.102;11.584;2022-11-15T07:31:44;5.00;99.90
38209;DHT22;24016;52.102;11.584;2022-11-15T07:34:09;5.00;99.90
38209;DHT22;24016;52.102;11.584;2022-11-15T07:36:35;5.10;99.90
38209;DHT22;24016;52.102;11.584;2022-11-15T07:39:01;5.20;99.90
38209;DHT22;24016;52.102;11.584;2022-11-15T07:41:27;5.30;99.90
38209;DHT22;24016;52.102;11.584;2022-11-15T07:43:52;5.40;99.90
38209;DHT22;24016;52.102;11.584;2022-11-15T07:46:18;5.50;99.90
38209;DHT22;24016;52.102;11.584;2022-11-15T07:48:44;5.60;99.90
38209;DHT22;24016;52.102;11.584;2022-11-15T07:51:14;5.70;99.90
38209;DHT22;24016;52.102;11.584;2022-11-15T07:53:41;5.70;99.90
38209;DHT22;24016;52.102;11.584;2022-11-15T07:56:07;5.80;99.90
38209;DHT22;24016;52.102;11.584;2022-11-15T07:58:33;6.00;99.90
38209;DHT22;24016;52.102;11.584;2022-11-15T08:01:03;6.00;99.90
38209;DHT22;24016;52.102;11.584;2022-11-15T08:03:29;6.10;99.90
38209;DHT22;24016;52.102;11.584;2022-11-15T08:05:54;6.10;99.90
38209;DHT22;24016;52.102;11.584;2022-11-15T08:08:20;6.10;99.90
38209;DHT22;24016;52.102;11.584;2022-11-15T08:10:46;6.10;99.90
38209;DHT22;24016;52.102;11.584;2022-11-15T08:13:12;6.20;99.90
38209;DHT22;24016;52.102;11.584;2022-11-15T08:15:38;6.20;99.90
38209;DHT22;24016;52.102;11.584;2022-11-15T08:18:11;6.20;99.90
38209;DHT22;24016;52.102;11.584;2022-11-15T08:20:37;6.20;99.90
38209;DHT22;24016;52.102;11.584;2022-11-15T08:23:03;6.20;99.90
38209;DHT22;24016;52.102;11.584;2022-11-15T08:25:31;6.30;99.90
38209;DHT22;24016;52.102;11.584;2022-11-15T08:28:02;6.40;99.90
38209;DHT22;24016;52.102;11.584;2022-11-15T08:30:29;6.40;99.90
38209;DHT22;24016;52.102;11.584;2022-11-15T08:32:57;6.50;99.90
38209;DHT22;24016;52.102;11.584;2022-11-15T08:35:23;6.60;99.90
38209;DHT22;24016;52.102;11.584;2022-11-15T08:37:49;6.70;99.90
38209;DHT22;24016;52.102;11.584;2022-11-15T08:40:17;6.70;99.90
38209;DHT22;24016;52.102;11.584;2022-11-15T08:42:45;6.90;99.90
38209;DHT22;24016;52.102;11.584;2022-11-15T08:45:13;7.10;99.90
38209;DHT22;24016;52.102;11.584;2022-11-15T08:47:38;7.30;99.90
38209;DHT22;24016;52.102;11.584;2022-11-15T08:50:04;7.40;99.90
38209;DHT22;24016;52.102;11.584;2022-11-15T08:52:30;7.50;99.90
38209;DHT22;24016;52.102;11.584;2022-11-15T08:54:57;7.60;99.90
38209;DHT22;24016;52.102;11.584;2022-11-15T08:57:22;7.70;99.90
38209;DHT22;24016;52.102;11.584;2022-11-15T08:59:48;7.80;99.90
38209;DHT22;24016;52.102;11.584;2022-11-15T09:02:14;7.80;99.90
38209;DHT22;24016;52.102;11.584;2022-11-15T09:04:43;7.90;99.90
38209;DHT22;24016;52.102;11.584;2022-11-15T09:07:10;8.10;99.90
38209;DHT22;24016;52.102;11.584;2022-11-15T09:09:35;8.20;99.90
38209;DHT22;24016;52.102;11.584;2022-11-15T09:12:03;8.30;99.90
38209;DHT22;24016;52.102;11.584;2022-11-15T09:14:29;8.50;99.90
38209;DHT22;24016;52.102;11.584;2022-11-15T09:16:55;8.70;99.90
38209;DHT22;24016;52.102;11.584;2022-11-15T09:19:21;9.10;99.90
38209;DHT22;24016;52.102;11.584;2022-11-15T09:21:46;9.50;99.90
38209;DHT22;24016;52.102;11.584;2022-11-15T09:24:12;10.10;99.90
38209;DHT22;24016;52.102;11.584;2022-11-15T09:26:38;10.40;99.90
38209;DHT22;24016;52.102;11.584;2022-11-15T09:29:04;10.90;99.90
38209;DHT22;24016;52.102;11.584;2022-11-15T09:31:29;11.30;99.90
38209;DHT22;24016;52.102;11.584;2022-11-15T09:33:55;11.80;99.90
38209;DHT22;24016;52.102;11.584;2022-11-15T09:36:20;12.30;99.90
38209;DHT22;24016;52.102;11.584;2022-11-15T09:38:46;12.50;99.90
38209;DHT22;24016;52.102;11.584;2022-11-15T09:49:18;13.00;99.90
38209;DHT22;24016;52.102;11.584;2022-11-15T09:51:47;13.00;99.90
38209;DHT22;24016;52.102;11.584;2022-11-15T09:54:34;12.90;99.90
38209;DHT22;24016;52.102;11.584;2022-11-15T09:57:12;13.00;99.90
38209;DHT22;24016;52.102;11.584;2022-11-15T10:00:02;12.90;99.90
38209;DHT22;24016;52.102;11.584;2022-11-15T10:05:39;13.00;99.90
38209;DHT22;24016;52.102;11.584;2022-11-15T10:11:07;12.90;99.90
38209;DHT22;24016;52.102;11.584;2022-11-15T10:13:35;12.60;99.90
38209;DHT22;24016;52.102;11.584;2022-11-15T10:16:27;12.40;99.90
38209;DHT22;24016;52.102;11.584;2022-11-15T10:22:19;12.50;99.90
38209;DHT22;24016;52.102;11.584;2022-11-15T10:24:47;12.70;99.90
38209;DHT22;24016;52.102;11.584;2022-11-15T10:27:18;13.00;99.90
38209;DHT22;24016;52.102;11.584;2022-11-15T10:29:46;13.00;99.90
38209;DHT22;24016;52.102;11.584;2022-11-15T10:32:14;13.00;99.90
38209;DHT22;24016;52.102;11.584;2022-11-15T10:34:40;13.30;99.90
38209;DHT22;24016;52.102;11.584;2022-11-15T10:37:06;13.40;99.90
38209;DHT22;24016;52.102;11.584;2022-11-15T10:39:31;13.40;99.90
38209;DHT22;24016;52.102;11.584;2022-11-15T10:42:18;13.40;99.90
38209;DHT22;24016;52.102;11.584;2022-11-15T10:44:50;13.40;99.90
38209;DHT22;24016;52.102;11.584;2022-11-15T10:47:36;13.50;99.90
38209;DHT22;24016;52.102;11.584;2022-11-15T10:50:28;13.30;99.90
38209;DHT22;24016;52.102;11.584;2022-11-15T10:52:53;13.20;99.90
38209;DHT22;24016;52.102;11.584;2022-11-15T10:55:26;13.40;99.90
38209;DHT22;24016;52.102;11.584;2022-11-15T10:57:55;13.70;99.90
38209;DHT22;24016;52.102;11.584;2022-11-15T11:00:26;13.90;99.90
38209;DHT22;24016;52.102;11.584;2022-11-15T11:05:33;14.40;99.90
38209;DHT22;24016;52.102;11.584;2022-11-15T11:08:09;14.50;99.90
38209;DHT22;24016;52.102;11.584;2022-11-15T11:10:56;14.50;99.90
38209;DHT22;24016;52.102;11.584;2022-11-15T11:13:39;15.10;99.90
38209;DHT22;24016;52.102;11.584;2022-11-15T11:32:31;16.40;99.90
38209;DHT22;24016;52.102;11.584;2022-11-15T11:37:33;16.50;99.90
38209;DHT22;24016;52.102;11.584;2022-11-15T11:40:36;16.40;99.90
38209;DHT22;24016;52.102;11.584;2022-11-15T11:43:15;16.50;99.90
38209;DHT22;24016;52.102;11.584;2022-11-15T11:48:42;16.20;99.90
38209;DHT22;24016;52.102;11.584;2022-11-15T11:51:28;15.80;99.90
38209;DHT22;24016;52.102;11.584;2022-11-15T11:55:02;16.00;99.90
38209;DHT22;24016;52.102;11.584;2022-11-15T11:57:56;16.10;99.90
38209;DHT22;24016;52.102;11.584;2022-11-15T12:02:43;14.80;99.90
38209;DHT22;24016;52.102;11.584;2022-11-15T12:05:20;14.20;99.90
38209;DHT22;24016;52.102;11.584;2022-11-15T12:07:50;13.90;99.90
38209;DHT22;24016;52.102;11.584;2022-11-15T12:10:24;13.60;99.90
38209;DHT22;24016;52.102;11.584;2022-11-15T12:13:11;13.60;99.90
38209;DHT22;24016;52.102;11.584;2022-11-15T12:15:57;13.30;99.90
38209;DHT22;24016;52.102;11.584;2022-11-15T12:18:25;13.10;99.90
38209;DHT22;24016;52.102;11.584;2022-11-15T12:20:58;13.00;99.90
38209;DHT22;24016;52.102;11.584;2022-11-15T12:23:28;13.00;99.90
38209;DHT22;24016;52.102;11.584;2022-11-15T12:31:17;13.10;99.90
38209;DHT22;24016;52.102;11.584;2022-11-15T12:33:44;13.20;99.90
38209;DHT22;24016;52.102;11.584;2022-11-15T12:39:05;13.10;99.90
38209;DHT22;24016;52.102;11.584;2022-11-15T12:41:41;13.20;99.90
38209;DHT22;24016;52.102;11.584;2022-11-15T12:44:12;13.20;99.90
38209;DHT22;24016;52.102;11.584;2022-11-15T12:59:59;12.60;99.90
38209;DHT22;24016;52.102;11.584;2022-11-15T13:02:44;12.60;99.90
38209;DHT22;24016;52.102;11.584;2022-11-15T13:27:46;12.30;99.90
38209;DHT22;24016;52.102;11.584;2022-11-15T13:30:20;12.30;99.90
38209;DHT22;24016;52.102;11.584;2022-11-15T13:32:47;12.20;99.90
38209;DHT22;24016;52.102;11.584;2022-11-15T13:35:39;12.10;99.90
38209;DHT22;24016;52.102;11.584;2022-11-15T13:38:06;12.10;99.90
38209;DHT22;24016;52.102;11.584;2022-11-15T13:40:36;12.10;99.90
38209;DHT22;24016;52.102;11.584;2022-11-15T13:46:27;12.10;99.90
38209;DHT22;24016;52.102;11.584;2022-11-15T13:49:01;12.10;99.90
38209;DHT22;24016;52.102;11.584;2022-11-15T13:57:04;12.20;99.90
38209;DHT22;24016;52.102;11.584;2022-11-15T13:59:34;12.20;99.90
38209;DHT22;24016;52.102;11.584;2022-11-15T14:02:18;12.20;99.90
38209;DHT22;24016;52.102;11.584;2022-11-15T14:04:53;12.20;99.90
38209;DHT22;24016;52.102;11.584;2022-11-15T14:07:21;12.20;99.90
38209;DHT22;24016;52.102;11.584;2022-11-15T14:09:47;12.20;99.90
38209;DHT22;24016;52.102;11.584;2022-11-15T14:12:32;12.30;99.90
38209;DHT22;24016;52.102;11.584;2022-11-15T14:15:00;12.30;99.90
38209;DHT22;24016;52.102;11.584;2022-11-15T14:19:56;12.20;99.90
38209;DHT22;24016;52.102;11.584;2022-11-15T14:22:27;12.20;99.90
38209;DHT22;24016;52.102;11.584;2022-11-15T14:25:16;12.30;99.90
38209;DHT22;24016;52.102;11.584;2022-11-15T14:27:57;12.30;99.90
38209;DHT22;24016;52.102;11.584;2022-11-15T14:30:29;12.30;99.90
38209;DHT22;24016;52.102;11.584;2022-11-15T14:32:55;12.20;99.90
38209;DHT22;24016;52.102;11.584;2022-11-15T14:35:22;12.20;99.90
38209;DHT22;24016;52.102;11.584;2022-11-15T14:37:48;12.10;99.90
38209;DHT22;24016;52.102;11.584;2022-11-15T14:40:19;12.10;99.90
38209;DHT22;24016;52.102;11.584;2022-11-15T14:42:47;12.00;99.90
38209;DHT22;24016;52.102;11.584;2022-11-15T14:45:21;12.00;99.90
38209;DHT22;24016;52.102;11.584;2022-11-15T14:47:47;11.90;99.90
38209;DHT22;24016;52.102;11.584;2022-11-15T14:50:14;11.90;99.90
38209;DHT22;24016;52.102;11.584;2022-11-15T14:52:40;11.90;99.90
38209;DHT22;24016;52.102;11.584;2022-11-15T14:55:31;11.90;99.90
38209;DHT22;24016;52.102;11.584;2022-11-15T14:57:58;11.80;99.90
38209;DHT22;24016;52.102;11.584;2022-11-15T15:00:24;11.70;99.90
38209;DHT22;24016;52.102;11.584;2022-11-15T15:02:52;11.60;99.90
38209;DHT22;24016;52.102;11.584;2022-11-15T15:05:24;11.60;99.90
38209;DHT22;24016;52.102;11.584;2022-11-15T15:07:50;11.50;99.90
38209;DHT22;24016;52.102;11.584;2022-11-15T15:10:17;11.40;99.90
38209;DHT22;24016;52.102;11.584;2022-11-15T15:12:43;11.40;99.90
38209;DHT22;24016;52.102;11.584;2022-11-15T15:15:16;11.30;99.90
38209;DHT22;24016;52.102;11.584;2022-11-15T15:17:43;11.30;99.90
38209;DHT22;24016;52.102;11.584;2022-11-15T15:20:09;11.30;99.90
38209;DHT22;24016;52.102;11.584;2022-11-15T15:22:35;11.20;99.90
38209;DHT22;24016;52.102;11.584;2022-11-15T15:25:01;11.10;99.90
38209;DHT22;24016;52.102;11.584;2022-11-15T15:27:29;11.00;99.90
38209;DHT22;24016;52.102;11.584;2022-11-15T15:29:54;11.00;99.90
38209;DHT22;24016;52.102;11.584;2022-11-15T15:32:20;11.00;99.90
38209;DHT22;24016;52.102;11.584;2022-11-15T15:34:46;11.00;99.90
38209;DHT22;24016;52.102;11.584;2022-11-15T15:37:25;11.00;99.90
38209;DHT22;24016;52.102;11.584;2022-11-15T15:39:55;10.90;99.90
38209;DHT22;24016;52.102;11.584;2022-11-15T15:42:22;10.90;99.90
38209;DHT22;24016;52.102;11.584;2022-11-15T15:44:49;10.90;99.90
38209;DHT22;24016;52.102;11.584;2022-11-15T15:49:43;10.80;99.90
38209;DHT22;24016;52.102;11.584;2022-11-15T15:52:11;10.80;99.90
38209;DHT22;24016;52.102;11.584;2022-11-15T15:54:38;10.70;99.90
38209;DHT22;24016;52.102;11.584;2022-11-15T15:57:04;10.70;99.90
38209;DHT22;24016;52.102;11.584;2022-11-15T15:59:30;10.70;99.90
38209;DHT22;24016;52.102;11.584;2022-11-15T16:01:56;10.70;99.90
38209;DHT22;24016;52.102;11.584;2022-11-15T16:04:22;10.70;99.90
38209;DHT22;24016;52.102;11.584;2022-11-15T16:06:47;10.70;99.90
38209;DHT22;24016;52.102;11.584;2022-11-15T16:09:16;10.70;99.90
38209;DHT22;24016;52.102;11.584;2022-11-15T16:11:44;10.70;99.90
38209;DHT22;24016;52.102;11.584;2022-11-15T16:14:10;10.60;99.90
38209;DHT22;24016;52.102;11.584;2022-11-15T16:16:37;10.60;99.90
38209;DHT22;24016;52.102;11.584;2022-11-15T16:19:03;10.60;99.90
38209;DHT22;24016;52.102;11.584;2022-11-15T16:21:29;10.50;99.90
38209;DHT22;24016;52.102;11.584;2022-11-15T16:23:55;10.50;99.90
38209;DHT22;24016;52.102;11.584;2022-11-15T16:26:25;10.40;99.90
38209;DHT22;24016;52.102;11.584;2022-11-15T16:28:51;10.20;99.90
38209;DHT22;24016;52.102;11.584;2022-11-15T16:31:17;10.00;99.90
38209;DHT22;24016;52.102;11.584;2022-11-15T16:33:45;9.90;99.90
38209;DHT22;24016;52.102;11.584;2022-11-15T16:36:22;9.80;99.90
38209;DHT22;24016;52.102;11.584;2022-11-15T16:38:48;9.60;99.90
38209;DHT22;24016;52.102;11.584;2022-11-15T16:41:14;9.40;99.90
38209;DHT22;24016;52.102;11.584;2022-11-15T16:43:46;9.30;99.90
38209;DHT22;24016;52.102;11.584;2022-11-15T16:46:19;9.10;99.90
38209;DHT22;24016;52.102;11.584;2022-11-15T16:48:46;9.10;99.90
38209;DHT22;24016;52.102;11.584;2022-11-15T16:51:12;9.00;99.90
38209;DHT22;24016;52.102;11.584;2022-11-15T16:53:38;9.00;99.90
38209;DHT22;24016;52.102;11.584;2022-11-15T16:56:09;9.10;99.90
38209;DHT22;24016;52.102;11.584;2022-11-15T16:58:41;9.00;99.90
38209;DHT22;24016;52.102;11.584;2022-11-15T17:01:18;9.20;99.90
38209;DHT22;24016;52.102;11.584;2022-11-15T17:03:44;9.20;99.90
38209;DHT22;24016;52.102;11.584;2022-11-15T17:06:10;9.20;99.90
38209;DHT22;24016;52.102;11.584;2022-11-15T17:08:37;9.10;99.90
38209;DHT22;24016;52.102;11.584;2022-11-15T17:11:06;9.10;99.90
38209;DHT22;24016;52.102;11.584;2022-11-15T17:13:32;9.10;99.90
38209;DHT22;24016;52.102;11.584;2022-11-15T17:16:09;9.10;99.90
38209;DHT22;24016;52.102;11.584;2022-11-15T17:18:36;8.80;99.90
38209;DHT22;24016;52.102;11.584;2022-11-15T17:21:06;8.70;99.90
38209;DHT22;24016;52.102;11.584;2022-11-15T17:23:32;8.50;99.90
38209;DHT22;24016;52.102;11.584;2022-11-15T17:26:03;8.40;99.90
38209;DHT22;24016;52.102;11.584;2022-11-15T17:28:31;8.30;99.90
38209;DHT22;24016;52.102;11.584;2022-11-15T17:30:56;8.20;99.90
38209;DHT22;24016;52.102;11.584;2022-11-15T17:33:22;8.10;99.90
38209;DHT22;24016;52.102;11.584;2022-11-15T17:35:58;8.10;99.90
38209;DHT22;24016;52.102;11.584;2022-11-15T17:38:24;8.00;99.90
38209;DHT22;24016;52.102;11.584;2022-11-15T17:41:08;8.00;99.90
38209;DHT22;24016;52.102;11.584;2022-11-15T17:43:36;8.00;99.90
38209;DHT22;24016;52.102;11.584;2022-11-15T17:46:07;8.00;99.90
38209;DHT22;24016;52.102;11.584;2022-11-15T17:48:33;8.00;99.90